ADDS METAR Data INFO
IDs: Format: Raw Decoded Include TAF

Data at: 1323 UTC 19 Jul 2018

KCDD 191255Z AUTO 00000KT 10SM CLR 17/16 A2991 RMK AO2
KCDD 191249Z AUTO 00000KT 10SM CLR 17/15 A2991 RMK AO2
KCDD 191155Z AUTO 00000KT 10SM CLR 14/14 A2991 RMK AO2
KCDD 191110Z AUTO 00000KT 10SM CLR 11/10 A2992 RMK AO2
KCDD 191055Z AUTO 00000KT 10SM CLR 10/10 A2992 RMK AO2
KCDD 190955Z AUTO 00000KT 10SM CLR 11/10 A2993 RMK AO2
KCDD 190930Z AUTO 00000KT 10SM CLR 11/11 A2994 RMK AO2
KCDD 190855Z AUTO 00000KT 10SM CLR 11/11 A2995 RMK AO2
KCDD 190810Z AUTO 00000KT 10SM CLR 11/11 A2995 RMK AO2
KCDD 190755Z AUTO 00000KT 10SM CLR 12/11 A2996 RMK AO2
KCDD 190730Z AUTO 00000KT 10SM CLR 12/11 A2996 RMK AO2
KCDD 190655Z AUTO 00000KT 10SM CLR 12/12 A2996 RMK AO2
KCDD 190649Z AUTO 00000KT 10SM CLR 12/12 A2996 RMK AO2
KCDD 190555Z AUTO 00000KT 10SM CLR 12/12 A2997 RMK AO2
KCDD 190550Z AUTO 00000KT 10SM CLR 12/12 A2997 RMK AO2
KCDD 190455Z AUTO 00000KT 10SM CLR 13/13 A2997 RMK AO2
KCDD 190355Z AUTO 00000KT 10SM CLR 14/13 A2997 RMK AO2
KCDD 190255Z AUTO 00000KT 10SM CLR 16/14 A2996 RMK AO2
KCDD 190250Z AUTO 00000KT 10SM CLR 16/15 A2996 RMK AO2
KCDD 190230Z AUTO 00000KT 10SM CLR 17/16 A2996 RMK AO2
KCDD 190155Z AUTO 00000KT 10SM CLR 18/17 A2996 RMK AO2
KCDD 190150Z AUTO 00000KT 10SM CLR 18/17 A2996 RMK AO2
KCDD 190055Z AUTO 00000KT 10SM CLR 24/16 A2997 RMK AO2
KCDD 182355Z AUTO 00000KT 10SM CLR 25/14 A2998 RMK AO2
KCDD 182330Z AUTO 22003KT 10SM CLR 26/14 A2999 RMK AO2
KCDD 182255Z AUTO 21004KT 10SM CLR 26/14 A3000 RMK AO2
KCDD 182250Z AUTO 00000KT 10SM CLR 25/14 A3000 RMK AO2
KCDD 182155Z AUTO 21003KT 10SM CLR 25/13 A3001 RMK AO2
KCDD 182130Z AUTO 20005KT 10SM CLR 25/12 A3002 RMK AO2
KCDD 182055Z AUTO 26003KT 10SM CLR 25/13 A3003 RMK AO2
KCDD 181955Z AUTO 23004KT 10SM CLR 25/13 A3003 RMK AO2
KCDD 181910Z AUTO 21004KT 10SM CLR 24/12 A3004 RMK AO2
KCDD 181855Z AUTO 23003KT 10SM CLR 24/12 A3005 RMK AO2
KCDD 181755Z AUTO 24004KT 10SM CLR 24/14 A3006 RMK AO2
KCDD 181710Z AUTO 19003KT 10SM CLR 23/14 A3007 RMK AO2
KCDD 181655Z AUTO 21004KT 10SM CLR 23/14 A3009 RMK AO2
KCDD 181555Z AUTO 23005KT 10SM CLR 22/14 A3010 RMK AO2
KCDD 181455Z AUTO 21003KT 10SM CLR 21/14 A3011 RMK AO2
KCDD 181429Z AUTO 00000KT 10SM CLR 20/14 A3011 RMK AO2
KCDD 181355Z AUTO 00000KT 10SM CLR 18/14 A3012 RMK AO2
KCDD 181350Z AUTO 00000KT 10SM CLR 18/14 A3012 RMK AO2
KCDD 181255Z AUTO 00000KT 10SM CLR 15/13 A3013 RMK AO2
KCDD 181210Z AUTO 00000KT 10SM CLR 10/09 A3013 RMK AO2
KCDD 181155Z AUTO 00000KT 10SM CLR 09/09 A3014 RMK AO2
KCDD 181055Z AUTO 00000KT 10SM CLR 07/07 A3012 RMK AO2
KCDD 181009Z AUTO 00000KT 10SM CLR 08/07 A3012 RMK AO2
KCDD 180855Z AUTO 00000KT 10SM CLR 08/08 A3011 RMK AO2
KCDD 180830Z AUTO 00000KT 10SM CLR 08/08 A3011 RMK AO2
KCDD 180755Z AUTO 00000KT 10SM CLR 08/08 A3011 RMK AO2
KCDD 180750Z AUTO 00000KT 10SM CLR 09/08 A3011 RMK AO2
KCDD 180729Z AUTO 00000KT 10SM CLR 09/08 A3011 RMK AO2
KCDD 180709Z AUTO 00000KT 10SM CLR 09/09 A3012 RMK AO2
KCDD 180555Z AUTO 00000KT 10SM CLR 10/09 A3012 RMK AO2
KCDD 180455Z AUTO 00000KT 10SM CLR 11/11 A3011 RMK AO2
KCDD 180410Z AUTO 00000KT 10SM CLR 11/11 A3011 RMK AO2
KCDD 180355Z AUTO 00000KT 10SM CLR 12/12 A3011 RMK AO2
KCDD 180255Z AUTO 00000KT 10SM CLR 13/13 A3011 RMK AO2
KCDD 180155Z AUTO 00000KT 10SM SCT060 15/14 A3011 RMK AO2